sensor_id;sensor_type;location;lat;lon;timestamp;P1;durP1;ratioP1;P2;durP2;ratioP2
8881;SDS011;4477;48.736;9.176;2024-01-30T00:01:59;8.10;;;6.80;;
8881;SDS011;4477;48.736;9.176;2024-01-30T00:04:26;8.93;;;6.77;;
8881;SDS011;4477;48.736;9.176;2024-01-30T00:06:53;7.70;;;6.67;;
8881;SDS011;4477;48.736;9.176;2024-01-30T00:09:19;7.37;;;6.07;;
8881;SDS011;4477;48.736;9.176;2024-01-30T00:11:48;7.20;;;6.13;;
8881;SDS011;4477;48.736;9.176;2024-01-30T00:14:15;9.47;;;7.20;;
8881;SDS011;4477;48.736;9.176;2024-01-30T00:16:42;9.30;;;6.70;;
8881;SDS011;4477;48.736;9.176;2024-01-30T00:19:08;7.83;;;6.50;;
8881;SDS011;4477;48.736;9.176;2024-01-30T00:21:36;8.17;;;7.00;;
8881;SDS011;4477;48.736;9.176;2024-01-30T00:24:03;8.13;;;6.33;;
8881;SDS011;4477;48.736;9.176;2024-01-30T00:26:30;7.43;;;6.07;;
8881;SDS011;4477;48.736;9.176;2024-01-30T00:28:58;9.23;;;6.30;;
8881;SDS011;4477;48.736;9.176;2024-01-30T00:31:25;8.60;;;6.10;;
8881;SDS011;4477;48.736;9.176;2024-01-30T00:33:52;9.07;;;6.63;;
8881;SDS011;4477;48.736;9.176;2024-01-30T00:36:19;8.73;;;6.43;;
8881;SDS011;4477;48.736;9.176;2024-01-30T00:38:45;11.03;;;7.20;;
8881;SDS011;4477;48.736;9.176;2024-01-30T00:41:12;9.97;;;7.30;;
8881;SDS011;4477;48.736;9.176;2024-01-30T00:43:39;7.90;;;6.60;;
8881;SDS011;4477;48.736;9.176;2024-01-30T00:46:08;9.57;;;6.77;;
8881;SDS011;4477;48.736;9.176;2024-01-30T00:48:35;8.47;;;6.73;;
8881;SDS011;4477;48.736;9.176;2024-01-30T00:51:02;11.13;;;7.67;;
8881;SDS011;4477;48.736;9.176;2024-01-30T00:53:29;7.53;;;6.17;;
8881;SDS011;4477;48.736;9.176;2024-01-30T00:55:55;8.60;;;7.00;;
8881;SDS011;4477;48.736;9.176;2024-01-30T00:58:22;8.17;;;6.80;;
8881;SDS011;4477;48.736;9.176;2024-01-30T01:00:49;8.80;;;6.67;;
8881;SDS011;4477;48.736;9.176;2024-01-30T01:03:18;8.63;;;6.77;;
8881;SDS011;4477;48.736;9.176;2024-01-30T01:05:45;9.80;;;6.90;;
8881;SDS011;4477;48.736;9.176;2024-01-30T01:08:12;8.17;;;6.80;;
8881;SDS011;4477;48.736;9.176;2024-01-30T01:10:40;8.00;;;7.13;;
8881;SDS011;4477;48.736;9.176;2024-01-30T01:13:07;8.27;;;6.63;;
8881;SDS011;4477;48.736;9.176;2024-01-30T01:15:34;8.10;;;6.67;;
8881;SDS011;4477;48.736;9.176;2024-01-30T01:18:02;9.00;;;7.23;;
8881;SDS011;4477;48.736;9.176;2024-01-30T01:20:30;8.03;;;6.57;;
8881;SDS011;4477;48.736;9.176;2024-01-30T01:22:57;9.10;;;6.67;;
8881;SDS011;4477;48.736;9.176;2024-01-30T01:25:24;7.73;;;6.80;;
8881;SDS011;4477;48.736;9.176;2024-01-30T01:27:51;7.57;;;6.53;;
8881;SDS011;4477;48.736;9.176;2024-01-30T01:30:18;8.00;;;6.73;;
8881;SDS011;4477;48.736;9.176;2024-01-30T01:32:47;9.87;;;6.87;;
8881;SDS011;4477;48.736;9.176;2024-01-30T01:35:19;9.77;;;6.57;;
8881;SDS011;4477;48.736;9.176;2024-01-30T01:37:49;8.13;;;6.83;;
8881;SDS011;4477;48.736;9.176;2024-01-30T01:40:20;8.70;;;6.93;;
8881;SDS011;4477;48.736;9.176;2024-01-30T01:42:48;7.53;;;6.37;;
8881;SDS011;4477;48.736;9.176;2024-01-30T01:45:16;8.07;;;6.77;;
8881;SDS011;4477;48.736;9.176;2024-01-30T01:47:43;9.60;;;6.80;;
8881;SDS011;4477;48.736;9.176;2024-01-30T01:50:12;9.43;;;7.10;;
8881;SDS011;4477;48.736;9.176;2024-01-30T01:52:39;8.27;;;6.77;;
8881;SDS011;4477;48.736;9.176;2024-01-30T01:55:08;8.93;;;7.57;;
8881;SDS011;4477;48.736;9.176;2024-01-30T01:57:36;8.67;;;7.33;;
8881;SDS011;4477;48.736;9.176;2024-01-30T02:00:03;8.63;;;7.10;;
8881;SDS011;4477;48.736;9.176;2024-01-30T02:02:30;8.07;;;7.20;;
8881;SDS011;4477;48.736;9.176;2024-01-30T02:05:01;10.47;;;7.63;;
8881;SDS011;4477;48.736;9.176;2024-01-30T02:07:29;9.83;;;8.10;;
8881;SDS011;4477;48.736;9.176;2024-01-30T02:09:55;9.47;;;8.47;;
8881;SDS011;4477;48.736;9.176;2024-01-30T02:12:24;10.93;;;8.07;;
8881;SDS011;4477;48.736;9.176;2024-01-30T02:14:51;8.90;;;8.00;;
8881;SDS011;4477;48.736;9.176;2024-01-30T02:17:18;11.93;;;8.90;;
8881;SDS011;4477;48.736;9.176;2024-01-30T02:19:45;12.20;;;9.80;;
8881;SDS011;4477;48.736;9.176;2024-01-30T02:22:13;11.33;;;8.50;;
8881;SDS011;4477;48.736;9.176;2024-01-30T02:24:41;15.10;;;9.53;;
8881;SDS011;4477;48.736;9.176;2024-01-30T02:27:08;12.93;;;9.40;;
8881;SDS011;4477;48.736;9.176;2024-01-30T02:29:34;13.10;;;9.47;;
8881;SDS011;4477;48.736;9.176;2024-01-30T02:32:01;10.87;;;8.77;;
8881;SDS011;4477;48.736;9.176;2024-01-30T02:34:27;10.53;;;8.50;;
8881;SDS011;4477;48.736;9.176;2024-01-30T02:36:54;13.17;;;9.17;;
8881;SDS011;4477;48.736;9.176;2024-01-30T02:39:23;9.67;;;8.67;;
8881;SDS011;4477;48.736;9.176;2024-01-30T02:41:50;12.40;;;9.90;;
8881;SDS011;4477;48.736;9.176;2024-01-30T02:44:17;13.60;;;9.27;;
8881;SDS011;4477;48.736;9.176;2024-01-30T02:46:44;12.63;;;10.17;;
8881;SDS011;4477;48.736;9.176;2024-01-30T02:49:11;12.47;;;9.63;;
8881;SDS011;4477;48.736;9.176;2024-01-30T02:51:38;13.37;;;9.73;;
8881;SDS011;4477;48.736;9.176;2024-01-30T02:54:05;15.10;;;10.87;;
8881;SDS011;4477;48.736;9.176;2024-01-30T02:56:33;15.40;;;10.13;;
8881;SDS011;4477;48.736;9.176;2024-01-30T02:59:00;12.90;;;10.80;;
8881;SDS011;4477;48.736;9.176;2024-01-30T03:01:27;15.27;;;10.67;;
8881;SDS011;4477;48.736;9.176;2024-01-30T03:03:54;11.80;;;10.03;;
8881;SDS011;4477;48.736;9.176;2024-01-30T03:06:21;13.20;;;10.53;;
8881;SDS011;4477;48.736;9.176;2024-01-30T03:08:48;13.40;;;10.07;;
8881;SDS011;4477;48.736;9.176;2024-01-30T03:11:15;15.87;;;11.17;;
8881;SDS011;4477;48.736;9.176;2024-01-30T03:13:43;15.37;;;10.87;;
8881;SDS011;4477;48.736;9.176;2024-01-30T03:16:10;15.27;;;10.80;;
8881;SDS011;4477;48.736;9.176;2024-01-30T03:18:37;15.53;;;11.30;;
8881;SDS011;4477;48.736;9.176;2024-01-30T03:21:04;14.03;;;10.03;;
8881;SDS011;4477;48.736;9.176;2024-01-30T03:23:31;15.07;;;11.00;;
8881;SDS011;4477;48.736;9.176;2024-01-30T03:25:58;14.67;;;11.07;;
8881;SDS011;4477;48.736;9.176;2024-01-30T03:28:24;15.97;;;11.40;;
8881;SDS011;4477;48.736;9.176;2024-01-30T03:30:53;15.17;;;10.43;;
8881;SDS011;4477;48.736;9.176;2024-01-30T03:33:20;17.17;;;12.23;;
8881;SDS011;4477;48.736;9.176;2024-01-30T03:35:46;15.63;;;11.70;;
8881;SDS011;4477;48.736;9.176;2024-01-30T03:38:13;18.40;;;11.70;;
8881;SDS011;4477;48.736;9.176;2024-01-30T03:40:40;14.27;;;11.50;;
8881;SDS011;4477;48.736;9.176;2024-01-30T03:43:07;16.53;;;12.20;;
8881;SDS011;4477;48.736;9.176;2024-01-30T03:45:34;15.60;;;11.97;;
8881;SDS011;4477;48.736;9.176;2024-01-30T03:48:02;16.93;;;11.27;;
8881;SDS011;4477;48.736;9.176;2024-01-30T03:50:30;17.77;;;11.63;;
8881;SDS011;4477;48.736;9.176;2024-01-30T03:52:57;16.90;;;12.13;;
8881;SDS011;4477;48.736;9.176;2024-01-30T03:55:23;16.93;;;13.03;;
8881;SDS011;4477;48.736;9.176;2024-01-30T03:57:50;14.37;;;11.87;;
8881;SDS011;4477;48.736;9.176;2024-01-30T04:00:17;19.00;;;12.67;;
8881;SDS011;4477;48.736;9.176;2024-01-30T04:02:44;16.17;;;11.93;;
8881;SDS011;4477;48.736;9.176;2024-01-30T04:05:12;17.13;;;13.43;;
8881;SDS011;4477;48.736;9.176;2024-01-30T04:07:38;16.77;;;11.90;;
8881;SDS011;4477;48.736;9.176;2024-01-30T04:10:06;16.60;;;12.77;;
8881;SDS011;4477;48.736;9.176;2024-01-30T04:12:33;17.47;;;13.13;;
8881;SDS011;4477;48.736;9.176;2024-01-30T04:15:00;20.67;;;13.67;;
8881;SDS011;4477;48.736;9.176;2024-01-30T04:17:27;19.07;;;13.40;;
8881;SDS011;4477;48.736;9.176;2024-01-30T04:19:54;18.10;;;13.80;;
8881;SDS011;4477;48.736;9.176;2024-01-30T04:22:22;17.57;;;12.90;;
8881;SDS011;4477;48.736;9.176;2024-01-30T04:24:49;20.47;;;13.43;;
8881;SDS011;4477;48.736;9.176;2024-01-30T04:27:16;19.93;;;14.00;;
8881;SDS011;4477;48.736;9.176;2024-01-30T04:29:43;17.13;;;14.20;;
8881;SDS011;4477;48.736;9.176;2024-01-30T04:32:10;17.37;;;13.73;;
8881;SDS011;4477;48.736;9.176;2024-01-30T04:34:37;21.27;;;14.40;;
8881;SDS011;4477;48.736;9.176;2024-01-30T04:37:04;20.40;;;14.03;;
8881;SDS011;4477;48.736;9.176;2024-01-30T04:39:33;18.50;;;12.70;;
8881;SDS011;4477;48.736;9.176;2024-01-30T04:42:00;18.60;;;13.23;;
8881;SDS011;4477;48.736;9.176;2024-01-30T04:44:27;18.23;;;13.57;;
8881;SDS011;4477;48.736;9.176;2024-01-30T04:46:54;17.33;;;13.57;;
8881;SDS011;4477;48.736;9.176;2024-01-30T04:49:24;21.63;;;13.17;;
8881;SDS011;4477;48.736;9.176;2024-01-30T04:51:50;19.70;;;14.30;;
8881;SDS011;4477;48.736;9.176;2024-01-30T04:54:17;16.80;;;13.37;;
8881;SDS011;4477;48.736;9.176;2024-01-30T04:56:46;17.30;;;13.43;;
8881;SDS011;4477;48.736;9.176;2024-01-30T04:59:12;19.87;;;14.77;;
8881;SDS011;4477;48.736;9.176;2024-01-30T05:01:39;22.47;;;15.60;;
8881;SDS011;4477;48.736;9.176;2024-01-30T05:04:07;19.47;;;14.33;;
8881;SDS011;4477;48.736;9.176;2024-01-30T05:06:33;20.70;;;13.67;;
8881;SDS011;4477;48.736;9.176;2024-01-30T05:09:00;22.47;;;15.30;;
8881;SDS011;4477;48.736;9.176;2024-01-30T05:11:28;20.87;;;14.07;;
8881;SDS011;4477;48.736;9.176;2024-01-30T05:13:56;18.33;;;14.27;;
8881;SDS011;4477;48.736;9.176;2024-01-30T05:16:23;21.83;;;15.10;;
8881;SDS011;4477;48.736;9.176;2024-01-30T05:18:50;22.23;;;16.07;;
8881;SDS011;4477;48.736;9.176;2024-01-30T05:21:16;22.17;;;16.33;;
8881;SDS011;4477;48.736;9.176;2024-01-30T05:23:43;23.67;;;16.77;;
8881;SDS011;4477;48.736;9.176;2024-01-30T05:26:11;25.03;;;17.50;;
8881;SDS011;4477;48.736;9.176;2024-01-30T05:28:37;22.60;;;16.50;;
8881;SDS011;4477;48.736;9.176;2024-01-30T05:31:06;25.50;;;17.87;;
8881;SDS011;4477;48.736;9.176;2024-01-30T05:33:33;21.40;;;16.07;;
8881;SDS011;4477;48.736;9.176;2024-01-30T05:35:59;26.60;;;18.50;;
8881;SDS011;4477;48.736;9.176;2024-01-30T05:38:26;24.10;;;16.83;;
8881;SDS011;4477;48.736;9.176;2024-01-30T05:40:57;23.90;;;17.03;;
8881;SDS011;4477;48.736;9.176;2024-01-30T05:43:24;25.77;;;17.70;;
8881;SDS011;4477;48.736;9.176;2024-01-30T05:45:51;24.53;;;17.50;;
8881;SDS011;4477;48.736;9.176;2024-01-30T05:48:19;21.43;;;16.30;;
8881;SDS011;4477;48.736;9.176;2024-01-30T05:50:45;22.40;;;17.57;;
8881;SDS011;4477;48.736;9.176;2024-01-30T05:53:12;24.50;;;17.23;;
8881;SDS011;4477;48.736;9.176;2024-01-30T05:55:39;21.93;;;16.33;;
8881;SDS011;4477;48.736;9.176;2024-01-30T05:58:06;23.30;;;16.53;;
8881;SDS011;4477;48.736;9.176;2024-01-30T06:00:33;21.33;;;16.43;;
8881;SDS011;4477;48.736;9.176;2024-01-30T06:03:00;22.33;;;15.63;;
8881;SDS011;4477;48.736;9.176;2024-01-30T06:05:28;24.47;;;16.80;;
8881;SDS011;4477;48.736;9.176;2024-01-30T06:07:55;23.43;;;16.93;;
8881;SDS011;4477;48.736;9.176;2024-01-30T06:10:22;21.10;;;16.47;;
8881;SDS011;4477;48.736;9.176;2024-01-30T06:12:49;23.90;;;16.20;;
8881;SDS011;4477;48.736;9.176;2024-01-30T06:15:16;26.23;;;16.73;;
8881;SDS011;4477;48.736;9.176;2024-01-30T06:17:43;22.83;;;17.27;;
8881;SDS011;4477;48.736;9.176;2024-01-30T06:20:10;23.13;;;15.93;;
8881;SDS011;4477;48.736;9.176;2024-01-30T06:22:38;22.93;;;16.60;;
8881;SDS011;4477;48.736;9.176;2024-01-30T06:25:05;26.73;;;16.83;;
8881;SDS011;4477;48.736;9.176;2024-01-30T06:27:32;23.17;;;16.10;;
8881;SDS011;4477;48.736;9.176;2024-01-30T06:29:59;22.97;;;16.27;;
8881;SDS011;4477;48.736;9.176;2024-01-30T06:32:27;23.23;;;15.60;;
8881;SDS011;4477;48.736;9.176;2024-01-30T06:34:53;23.07;;;16.63;;
8881;SDS011;4477;48.736;9.176;2024-01-30T06:37:20;24.03;;;16.50;;
8881;SDS011;4477;48.736;9.176;2024-01-30T06:39:49;21.57;;;16.37;;
8881;SDS011;4477;48.736;9.176;2024-01-30T06:42:16;24.17;;;16.57;;
8881;SDS011;4477;48.736;9.176;2024-01-30T06:44:42;22.60;;;16.17;;
8881;SDS011;4477;48.736;9.176;2024-01-30T06:47:09;24.10;;;17.10;;
8881;SDS011;4477;48.736;9.176;2024-01-30T06:49:36;23.37;;;16.97;;
8881;SDS011;4477;48.736;9.176;2024-01-30T06:52:04;26.47;;;16.87;;
8881;SDS011;4477;48.736;9.176;2024-01-30T06:54:31;26.23;;;18.17;;
8881;SDS011;4477;48.736;9.176;2024-01-30T06:57:00;25.37;;;17.10;;
8881;SDS011;4477;48.736;9.176;2024-01-30T06:59:27;26.90;;;17.20;;
8881;SDS011;4477;48.736;9.176;2024-01-30T07:01:55;29.23;;;17.87;;
8881;SDS011;4477;48.736;9.176;2024-01-30T07:04:22;26.77;;;18.00;;
8881;SDS011;4477;48.736;9.176;2024-01-30T07:06:49;26.83;;;18.40;;
8881;SDS011;4477;48.736;9.176;2024-01-30T07:09:15;26.17;;;19.27;;
8881;SDS011;4477;48.736;9.176;2024-01-30T07:11:42;29.47;;;19.37;;
8881;SDS011;4477;48.736;9.176;2024-01-30T07:14:11;28.87;;;19.57;;
8881;SDS011;4477;48.736;9.176;2024-01-30T07:16:38;27.80;;;19.23;;
8881;SDS011;4477;48.736;9.176;2024-01-30T07:19:04;27.77;;;19.27;;
8881;SDS011;4477;48.736;9.176;2024-01-30T07:21:34;26.67;;;19.57;;
8881;SDS011;4477;48.736;9.176;2024-01-30T07:24:01;26.93;;;19.07;;
8881;SDS011;4477;48.736;9.176;2024-01-30T07:26:28;26.60;;;20.07;;
8881;SDS011;4477;48.736;9.176;2024-01-30T07:28:55;27.07;;;19.50;;
8881;SDS011;4477;48.736;9.176;2024-01-30T07:31:23;27.90;;;20.37;;
8881;SDS011;4477;48.736;9.176;2024-01-30T07:33:50;31.33;;;21.43;;
8881;SDS011;4477;48.736;9.176;2024-01-30T07:36:18;28.07;;;20.47;;
8881;SDS011;4477;48.736;9.176;2024-01-30T07:38:45;38.83;;;26.77;;
8881;SDS011;4477;48.736;9.176;2024-01-30T07:41:12;49.90;;;35.03;;
8881;SDS011;4477;48.736;9.176;2024-01-30T07:43:39;37.10;;;27.90;;
8881;SDS011;4477;48.736;9.176;2024-01-30T07:46:05;33.67;;;24.57;;
8881;SDS011;4477;48.736;9.176;2024-01-30T07:48:34;25.70;;;21.07;;
8881;SDS011;4477;48.736;9.176;2024-01-30T07:51:01;25.37;;;20.10;;
8881;SDS011;4477;48.736;9.176;2024-01-30T07:53:29;26.47;;;19.97;;
8881;SDS011;4477;48.736;9.176;2024-01-30T07:55:56;25.90;;;19.90;;
8881;SDS011;4477;48.736;9.176;2024-01-30T07:58:22;26.60;;;19.10;;
8881;SDS011;4477;48.736;9.176;2024-01-30T08:00:52;22.33;;;17.67;;
8881;SDS011;4477;48.736;9.176;2024-01-30T08:03:19;22.53;;;18.23;;
8881;SDS011;4477;48.736;9.176;2024-01-30T08:05:47;22.00;;;18.50;;
8881;SDS011;4477;48.736;9.176;2024-01-30T08:08:14;22.00;;;17.57;;
8881;SDS011;4477;48.736;9.176;2024-01-30T08:10:41;20.23;;;17.93;;
8881;SDS011;4477;48.736;9.176;2024-01-30T08:13:08;23.97;;;20.00;;
8881;SDS011;4477;48.736;9.176;2024-01-30T08:15:35;21.37;;;17.67;;
8881;SDS011;4477;48.736;9.176;2024-01-30T08:18:02;20.23;;;16.77;;
8881;SDS011;4477;48.736;9.176;2024-01-30T08:20:29;16.27;;;14.57;;
8881;SDS011;4477;48.736;9.176;2024-01-30T08:22:58;19.87;;;15.93;;
8881;SDS011;4477;48.736;9.176;2024-01-30T08:25:26;15.70;;;14.00;;
8881;SDS011;4477;48.736;9.176;2024-01-30T08:27:53;14.97;;;12.87;;
8881;SDS011;4477;48.736;9.176;2024-01-30T08:30:20;12.13;;;10.83;;
8881;SDS011;4477;48.736;9.176;2024-01-30T08:32:47;14.27;;;12.23;;
8881;SDS011;4477;48.736;9.176;2024-01-30T08:35:14;18.07;;;14.77;;
8881;SDS011;4477;48.736;9.176;2024-01-30T08:37:41;16.70;;;14.40;;
8881;SDS011;4477;48.736;9.176;2024-01-30T08:40:09;14.47;;;11.37;;
8881;SDS011;4477;48.736;9.176;2024-01-30T08:42:37;12.93;;;11.07;;
8881;SDS011;4477;48.736;9.176;2024-01-30T08:45:04;15.40;;;10.80;;
8881;SDS011;4477;48.736;9.176;2024-01-30T08:47:31;11.63;;;9.40;;
8881;SDS011;4477;48.736;9.176;2024-01-30T08:49:59;10.20;;;8.77;;
8881;SDS011;4477;48.736;9.176;2024-01-30T08:52:26;14.97;;;10.73;;
8881;SDS011;4477;48.736;9.176;2024-01-30T08:54:53;18.83;;;11.93;;
8881;SDS011;4477;48.736;9.176;2024-01-30T08:57:21;13.30;;;10.03;;
8881;SDS011;4477;48.736;9.176;2024-01-30T08:59:48;11.00;;;9.43;;
8881;SDS011;4477;48.736;9.176;2024-01-30T09:02:15;11.90;;;8.77;;
8881;SDS011;4477;48.736;9.176;2024-01-30T09:04:43;10.30;;;8.70;;
8881;SDS011;4477;48.736;9.176;2024-01-30T09:07:10;10.83;;;9.27;;
8881;SDS011;4477;48.736;9.176;2024-01-30T09:09:38;11.50;;;10.20;;
8881;SDS011;4477;48.736;9.176;2024-01-30T09:12:06;11.40;;;9.10;;
8881;SDS011;4477;48.736;9.176;2024-01-30T09:14:36;8.83;;;7.50;;
8881;SDS011;4477;48.736;9.176;2024-01-30T09:17:03;9.20;;;7.30;;
8881;SDS011;4477;48.736;9.176;2024-01-30T09:19:30;7.70;;;6.97;;
8881;SDS011;4477;48.736;9.176;2024-01-30T09:21:57;8.60;;;7.40;;
8881;SDS011;4477;48.736;9.176;2024-01-30T09:24:24;8.60;;;7.50;;
8881;SDS011;4477;48.736;9.176;2024-01-30T09:26:52;13.13;;;7.90;;
8881;SDS011;4477;48.736;9.176;2024-01-30T09:29:19;8.30;;;7.00;;
8881;SDS011;4477;48.736;9.176;2024-01-30T09:31:47;7.80;;;6.93;;
8881;SDS011;4477;48.736;9.176;2024-01-30T09:34:14;8.13;;;7.23;;
8881;SDS011;4477;48.736;9.176;2024-01-30T09:36:42;8.63;;;7.27;;
8881;SDS011;4477;48.736;9.176;2024-01-30T09:39:09;13.77;;;9.07;;
8881;SDS011;4477;48.736;9.176;2024-01-30T09:41:36;11.57;;;8.37;;
8881;SDS011;4477;48.736;9.176;2024-01-30T09:44:09;11.90;;;7.73;;
8881;SDS011;4477;48.736;9.176;2024-01-30T09:46:37;7.53;;;6.57;;
8881;SDS011;4477;48.736;9.176;2024-01-30T09:49:06;8.73;;;7.30;;
8881;SDS011;4477;48.736;9.176;2024-01-30T09:51:35;9.97;;;7.53;;
8881;SDS011;4477;48.736;9.176;2024-01-30T09:54:02;10.83;;;7.97;;
8881;SDS011;4477;48.736;9.176;2024-01-30T09:56:30;12.90;;;10.50;;
8881;SDS011;4477;48.736;9.176;2024-01-30T09:58:57;10.97;;;9.30;;
8881;SDS011;4477;48.736;9.176;2024-01-30T10:01:24;9.23;;;7.40;;
8881;SDS011;4477;48.736;9.176;2024-01-30T10:03:54;6.80;;;5.83;;
8881;SDS011;4477;48.736;9.176;2024-01-30T10:06:23;9.37;;;6.60;;
8881;SDS011;4477;48.736;9.176;2024-01-30T10:08:51;6.93;;;6.07;;
8881;SDS011;4477;48.736;9.176;2024-01-30T10:11:18;5.20;;;4.70;;
8881;SDS011;4477;48.736;9.176;2024-01-30T10:13:45;5.47;;;4.43;;
8881;SDS011;4477;48.736;9.176;2024-01-30T10:16:13;6.37;;;4.60;;
8881;SDS011;4477;48.736;9.176;2024-01-30T10:18:41;6.07;;;4.10;;
8881;SDS011;4477;48.736;9.176;2024-01-30T10:21:08;6.53;;;4.70;;
8881;SDS011;4477;48.736;9.176;2024-01-30T10:23:38;6.67;;;4.63;;
8881;SDS011;4477;48.736;9.176;2024-01-30T10:26:05;6.57;;;4.53;;
8881;SDS011;4477;48.736;9.176;2024-01-30T10:28:33;7.03;;;4.87;;
8881;SDS011;4477;48.736;9.176;2024-01-30T10:31:01;7.73;;;4.60;;
8881;SDS011;4477;48.736;9.176;2024-01-30T10:33:28;14.97;;;13.50;;
8881;SDS011;4477;48.736;9.176;2024-01-30T10:35:56;8.03;;;6.43;;
8881;SDS011;4477;48.736;9.176;2024-01-30T10:38:27;11.60;;;7.00;;
8881;SDS011;4477;48.736;9.176;2024-01-30T10:40:58;8.97;;;5.17;;
8881;SDS011;4477;48.736;9.176;2024-01-30T10:43:28;7.43;;;4.40;;
8881;SDS011;4477;48.736;9.176;2024-01-30T10:45:59;6.50;;;5.30;;
8881;SDS011;4477;48.736;9.176;2024-01-30T10:48:33;6.00;;;3.77;;
8881;SDS011;4477;48.736;9.176;2024-01-30T10:51:09;7.00;;;3.60;;
8881;SDS011;4477;48.736;9.176;2024-01-30T10:53:38;6.87;;;3.40;;
8881;SDS011;4477;48.736;9.176;2024-01-30T10:56:07;6.07;;;2.80;;
8881;SDS011;4477;48.736;9.176;2024-01-30T10:58:36;4.80;;;2.60;;
8881;SDS011;4477;48.736;9.176;2024-01-30T11:01:03;7.27;;;2.90;;
8881;SDS011;4477;48.736;9.176;2024-01-30T11:03:31;4.60;;;2.80;;
8881;SDS011;4477;48.736;9.176;2024-01-30T11:06:00;3.23;;;2.30;;
8881;SDS011;4477;48.736;9.176;2024-01-30T11:08:27;4.00;;;3.30;;
8881;SDS011;4477;48.736;9.176;2024-01-30T11:10:55;3.53;;;2.73;;
8881;SDS011;4477;48.736;9.176;2024-01-30T11:13:27;5.67;;;3.53;;
8881;SDS011;4477;48.736;9.176;2024-01-30T11:15:55;4.50;;;4.10;;
8881;SDS011;4477;48.736;9.176;2024-01-30T11:18:28;4.73;;;3.27;;
8881;SDS011;4477;48.736;9.176;2024-01-30T11:20:56;3.53;;;2.70;;
8881;SDS011;4477;48.736;9.176;2024-01-30T11:23:23;9.07;;;4.43;;
8881;SDS011;4477;48.736;9.176;2024-01-30T11:25:52;6.20;;;5.60;;
8881;SDS011;4477;48.736;9.176;2024-01-30T11:28:19;5.17;;;2.80;;
8881;SDS011;4477;48.736;9.176;2024-01-30T11:30:49;3.97;;;2.60;;
8881;SDS011;4477;48.736;9.176;2024-01-30T11:33:27;4.10;;;2.83;;
8881;SDS011;4477;48.736;9.176;2024-01-30T11:35:56;4.40;;;2.47;;
8881;SDS011;4477;48.736;9.176;2024-01-30T11:38:25;5.77;;;2.80;;
8881;SDS011;4477;48.736;9.176;2024-01-30T11:40:53;5.20;;;2.57;;
8881;SDS011;4477;48.736;9.176;2024-01-30T11:43:21;4.10;;;3.30;;
8881;SDS011;4477;48.736;9.176;2024-01-30T11:45:48;3.60;;;2.77;;
8881;SDS011;4477;48.736;9.176;2024-01-30T11:48:16;4.33;;;2.67;;
8881;SDS011;4477;48.736;9.176;2024-01-30T11:50:43;4.50;;;3.70;;
8881;SDS011;4477;48.736;9.176;2024-01-30T11:53:11;3.27;;;2.53;;
8881;SDS011;4477;48.736;9.176;2024-01-30T11:55:38;6.20;;;3.97;;
8881;SDS011;4477;48.736;9.176;2024-01-30T11:58:05;5.53;;;2.97;;
8881;SDS011;4477;48.736;9.176;2024-01-30T12:00:32;3.57;;;3.10;;
8881;SDS011;4477;48.736;9.176;2024-01-30T12:03:01;5.67;;;3.10;;
8881;SDS011;4477;48.736;9.176;2024-01-30T12:05:28;4.20;;;2.70;;
8881;SDS011;4477;48.736;9.176;2024-01-30T12:07:55;5.23;;;3.00;;
8881;SDS011;4477;48.736;9.176;2024-01-30T12:10:24;5.17;;;3.30;;
8881;SDS011;4477;48.736;9.176;2024-01-30T12:12:52;4.20;;;3.00;;
8881;SDS011;4477;48.736;9.176;2024-01-30T12:15:21;9.80;;;7.37;;
8881;SDS011;4477;48.736;9.176;2024-01-30T12:17:48;6.10;;;3.40;;
8881;SDS011;4477;48.736;9.176;2024-01-30T12:20:17;10.27;;;7.03;;
8881;SDS011;4477;48.736;9.176;2024-01-30T12:22:46;9.03;;;6.93;;
8881;SDS011;4477;48.736;9.176;2024-01-30T12:25:15;4.23;;;3.67;;
8881;SDS011;4477;48.736;9.176;2024-01-30T12:27:43;5.03;;;3.93;;
8881;SDS011;4477;48.736;9.176;2024-01-30T12:30:12;5.03;;;4.07;;
8881;SDS011;4477;48.736;9.176;2024-01-30T12:32:40;6.50;;;4.40;;
8881;SDS011;4477;48.736;9.176;2024-01-30T12:35:09;9.67;;;7.57;;
8881;SDS011;4477;48.736;9.176;2024-01-30T12:37:38;8.73;;;6.93;;
8881;SDS011;4477;48.736;9.176;2024-01-30T12:40:05;8.97;;;6.83;;
8881;SDS011;4477;48.736;9.176;2024-01-30T12:42:34;4.07;;;3.00;;
8881;SDS011;4477;48.736;9.176;2024-01-30T12:45:02;6.87;;;4.97;;
8881;SDS011;4477;48.736;9.176;2024-01-30T12:47:29;7.17;;;5.43;;
8881;SDS011;4477;48.736;9.176;2024-01-30T12:49:56;13.17;;;10.83;;
8881;SDS011;4477;48.736;9.176;2024-01-30T12:52:23;4.87;;;3.17;;
8881;SDS011;4477;48.736;9.176;2024-01-30T12:54:52;6.13;;;3.40;;
8881;SDS011;4477;48.736;9.176;2024-01-30T12:57:19;7.37;;;3.87;;
8881;SDS011;4477;48.736;9.176;2024-01-30T12:59:46;9.53;;;7.00;;
8881;SDS011;4477;48.736;9.176;2024-01-30T13:02:13;7.17;;;4.80;;
8881;SDS011;4477;48.736;9.176;2024-01-30T13:04:41;9.53;;;6.47;;
8881;SDS011;4477;48.736;9.176;2024-01-30T13:07:09;4.70;;;3.40;;
8881;SDS011;4477;48.736;9.176;2024-01-30T13:09:36;2.83;;;2.30;;
8881;SDS011;4477;48.736;9.176;2024-01-30T13:12:04;4.47;;;2.40;;
8881;SDS011;4477;48.736;9.176;2024-01-30T13:14:32;3.43;;;2.70;;
8881;SDS011;4477;48.736;9.176;2024-01-30T13:16:59;3.43;;;2.20;;
8881;SDS011;4477;48.736;9.176;2024-01-30T13:19:26;2.73;;;2.00;;
8881;SDS011;4477;48.736;9.176;2024-01-30T13:21:53;3.07;;;2.20;;
8881;SDS011;4477;48.736;9.176;2024-01-30T13:24:20;2.67;;;2.27;;
8881;SDS011;4477;48.736;9.176;2024-01-30T13:26:47;3.90;;;2.50;;
8881;SDS011;4477;48.736;9.176;2024-01-30T13:29:16;3.67;;;2.30;;
8881;SDS011;4477;48.736;9.176;2024-01-30T13:31:43;3.83;;;2.50;;
8881;SDS011;4477;48.736;9.176;2024-01-30T13:34:11;3.23;;;2.50;;
8881;SDS011;4477;48.736;9.176;2024-01-30T13:36:39;3.50;;;2.20;;
8881;SDS011;4477;48.736;9.176;2024-01-30T13:39:07;3.57;;;2.37;;
8881;SDS011;4477;48.736;9.176;2024-01-30T13:41:37;3.07;;;2.03;;
8881;SDS011;4477;48.736;9.176;2024-01-30T13:44:04;4.10;;;2.50;;
8881;SDS011;4477;48.736;9.176;2024-01-30T13:46:32;4.00;;;2.80;;
8881;SDS011;4477;48.736;9.176;2024-01-30T13:49:00;3.10;;;2.20;;
8881;SDS011;4477;48.736;9.176;2024-01-30T13:51:27;3.83;;;2.53;;
8881;SDS011;4477;48.736;9.176;2024-01-30T13:53:54;3.57;;;2.10;;
8881;SDS011;4477;48.736;9.176;2024-01-30T13:56:21;2.40;;;2.20;;
8881;SDS011;4477;48.736;9.176;2024-01-30T13:58:48;5.10;;;2.03;;
8881;SDS011;4477;48.736;9.176;2024-01-30T14:01:16;4.43;;;2.30;;
8881;SDS011;4477;48.736;9.176;2024-01-30T14:03:44;3.33;;;2.27;;
8881;SDS011;4477;48.736;9.176;2024-01-30T14:06:11;2.40;;;2.20;;
8881;SDS011;4477;48.736;9.176;2024-01-30T14:08:38;4.40;;;3.70;;
8881;SDS011;4477;48.736;9.176;2024-01-30T14:11:07;65.93;;;34.27;;
8881;SDS011;4477;48.736;9.176;2024-01-30T14:13:34;3.37;;;2.53;;
8881;SDS011;4477;48.736;9.176;2024-01-30T14:16:01;3.47;;;2.60;;
8881;SDS011;4477;48.736;9.176;2024-01-30T14:18:28;4.47;;;2.50;;
8881;SDS011;4477;48.736;9.176;2024-01-30T14:20:57;3.77;;;2.77;;
8881;SDS011;4477;48.736;9.176;2024-01-30T14:23:24;2.60;;;2.33;;
8881;SDS011;4477;48.736;9.176;2024-01-30T14:25:50;4.27;;;2.47;;
8881;SDS011;4477;48.736;9.176;2024-01-30T14:28:18;5.97;;;2.50;;
8881;SDS011;4477;48.736;9.176;2024-01-30T14:30:45;3.70;;;2.20;;
8881;SDS011;4477;48.736;9.176;2024-01-30T14:33:12;5.67;;;3.80;;
8881;SDS011;4477;48.736;9.176;2024-01-30T14:35:39;6.07;;;3.43;;
8881;SDS011;4477;48.736;9.176;2024-01-30T14:38:07;4.27;;;2.60;;
8881;SDS011;4477;48.736;9.176;2024-01-30T14:40:34;4.63;;;2.50;;
8881;SDS011;4477;48.736;9.176;2024-01-30T14:43:02;4.23;;;2.83;;
8881;SDS011;4477;48.736;9.176;2024-01-30T14:45:29;4.17;;;2.50;;
8881;SDS011;4477;48.736;9.176;2024-01-30T14:47:56;5.73;;;2.63;;
8881;SDS011;4477;48.736;9.176;2024-01-30T14:50:24;6.87;;;2.70;;
8881;SDS011;4477;48.736;9.176;2024-01-30T14:52:52;5.23;;;2.53;;
8881;SDS011;4477;48.736;9.176;2024-01-30T14:55:20;3.50;;;2.63;;
8881;SDS011;4477;48.736;9.176;2024-01-30T14:57:47;3.53;;;2.60;;
8881;SDS011;4477;48.736;9.176;2024-01-30T15:00:14;5.33;;;3.03;;
8881;SDS011;4477;48.736;9.176;2024-01-30T15:02:42;8.33;;;2.70;;
8881;SDS011;4477;48.736;9.176;2024-01-30T15:05:09;5.07;;;2.77;;